createdAt,value
2022-12-08T00:00:28.652Z,52.08
2022-12-08T00:03:01.727Z,52.13
2022-12-08T00:05:34.555Z,52.11
2022-12-08T00:08:07.566Z,52.22
2022-12-08T00:10:48.860Z,52.31
2022-12-08T00:13:13.529Z,52.31
2022-12-08T00:15:46.614Z,52.36
2022-12-08T00:18:19.356Z,52.36
2022-12-08T00:20:52.690Z,52.39
2022-12-08T00:23:25.660Z,52.42
2022-12-08T00:25:58.642Z,52.42
2022-12-08T00:28:31.591Z,52.48
2022-12-08T00:31:04.599Z,52.54
2022-12-08T00:33:37.714Z,52.57
2022-12-08T00:36:10.635Z,52.57
2022-12-08T00:38:43.692Z,52.56
2022-12-08T00:41:16.614Z,52.55
2022-12-08T00:43:49.615Z,52.58
2022-12-08T00:46:22.666Z,52.65
2022-12-08T00:48:55.516Z,52.77
2022-12-08T00:51:28.393Z,52.71
2022-12-08T00:54:01.743Z,52.69
2022-12-08T00:56:34.651Z,52.67
2022-12-08T00:59:07.628Z,52.66
2022-12-08T01:01:40.741Z,52.67
2022-12-08T01:04:13.617Z,52.66
2022-12-08T01:06:46.699Z,52.64
2022-12-08T01:09:19.745Z,52.73
2022-12-08T01:11:52.721Z,52.70
2022-12-08T01:14:25.793Z,52.75
2022-12-08T01:16:58.791Z,52.72
2022-12-08T01:19:31.775Z,52.74
2022-12-08T01:22:04.748Z,52.71
2022-12-08T01:24:37.790Z,52.73
2022-12-08T01:27:10.675Z,52.72
2022-12-08T01:29:43.782Z,52.68
2022-12-08T01:32:16.784Z,52.72
2022-12-08T01:34:49.776Z,52.74
2022-12-08T01:37:22.783Z,52.75
2022-12-08T01:39:55.685Z,52.76
2022-12-08T01:42:28.811Z,52.77
2022-12-08T01:45:01.686Z,52.74
2022-12-08T01:47:34.885Z,52.75
2022-12-08T01:50:07.850Z,52.75
2022-12-08T01:52:40.835Z,52.76
2022-12-08T01:55:13.711Z,52.79
2022-12-08T01:57:46.802Z,52.78
2022-12-08T02:00:19.726Z,52.79
2022-12-08T02:02:52.891Z,52.90
2022-12-08T02:05:39.792Z,52.90
2022-12-08T02:08:12.968Z,52.89
2022-12-08T02:10:45.836Z,52.91
2022-12-08T02:13:18.871Z,52.88
2022-12-08T02:15:51.874Z,52.85
2022-12-08T02:18:24.760Z,52.88
2022-12-08T02:20:57.883Z,52.90
2022-12-08T02:23:30.851Z,52.89
2022-12-08T02:26:03.788Z,52.88
2022-12-08T02:28:39.737Z,52.88
2022-12-08T02:31:12.908Z,52.89
2022-12-08T02:33:45.893Z,52.93
2022-12-08T02:36:18.888Z,52.91
2022-12-08T02:38:51.860Z,52.91
2022-12-08T02:41:24.929Z,52.91
2022-12-08T02:43:57.851Z,52.92
2022-12-08T02:46:30.839Z,52.92
2022-12-08T02:49:03.856Z,52.95
2022-12-08T02:51:36.847Z,52.98
2022-12-08T02:54:09.775Z,52.97
2022-12-08T02:56:42.850Z,53.01
2022-12-08T02:59:15.768Z,53.02
2022-12-08T03:01:49.025Z,52.99
2022-12-08T03:04:21.829Z,53.01
2022-12-08T03:06:54.925Z,53.05
2022-12-08T03:09:27.931Z,53.02
2022-12-08T03:12:00.913Z,53.02
2022-12-08T03:14:33.954Z,53.02
2022-12-08T03:17:06.910Z,53.06
2022-12-08T03:19:39.933Z,53.06
2022-12-08T03:22:12.877Z,53.04
2022-12-08T03:24:45.885Z,53.00
2022-12-08T03:27:18.895Z,53.02
2022-12-08T03:29:51.961Z,53.03
2022-12-08T03:32:24.936Z,52.98
2022-12-08T03:34:57.981Z,53.00
2022-12-08T03:37:30.913Z,53.00
2022-12-08T03:40:07.995Z,52.97
2022-12-08T03:42:40.920Z,52.97
2022-12-08T03:45:13.883Z,52.94
2022-12-08T03:47:46.866Z,52.97
2022-12-08T03:50:22.833Z,52.94
2022-12-08T03:52:55.978Z,52.92
2022-12-08T03:55:29.062Z,52.94
2022-12-08T03:58:01.992Z,52.95
2022-12-08T04:00:34.929Z,52.97
2022-12-08T04:03:08.061Z,52.98
2022-12-08T04:05:40.914Z,53.00
2022-12-08T04:08:14.137Z,53.00
2022-12-08T04:10:47.071Z,53.01
2022-12-08T04:13:19.846Z,53.04
2022-12-08T04:15:53.117Z,53.06
2022-12-08T04:18:25.937Z,53.06
2022-12-08T04:20:59.026Z,53.08
2022-12-08T04:23:32.042Z,53.04
2022-12-08T04:26:05.090Z,53.05
2022-12-08T04:28:37.936Z,53.06
2022-12-08T04:31:11.149Z,53.03
2022-12-08T04:33:43.976Z,53.01
2022-12-08T04:36:16.683Z,53.00
2022-12-08T04:38:49.882Z,53.01
2022-12-08T04:41:23.124Z,53.03
2022-12-08T04:43:56.088Z,53.00
2022-12-08T04:46:29.084Z,52.98
2022-12-08T04:49:01.742Z,53.00
2022-12-08T04:51:34.744Z,52.97
2022-12-08T04:54:07.861Z,52.99
2022-12-08T04:56:41.049Z,52.99
2022-12-08T04:59:13.819Z,53.00
2022-12-08T05:01:47.316Z,53.00
2022-12-08T05:04:19.926Z,53.02
2022-12-08T05:06:52.854Z,53.21
2022-12-08T05:09:25.869Z,52.92
2022-12-08T05:11:59.148Z,52.77
2022-12-08T05:14:32.181Z,52.62
2022-12-08T05:17:09.481Z,52.50
2022-12-08T05:19:38.955Z,52.43
2022-12-08T05:22:11.756Z,52.42
2022-12-08T05:24:47.718Z,52.46
2022-12-08T05:27:17.802Z,52.50
2022-12-08T05:29:51.018Z,52.53
2022-12-08T05:32:24.101Z,52.59
2022-12-08T05:34:57.157Z,52.56
2022-12-08T05:37:29.774Z,52.55
2022-12-08T05:40:03.519Z,52.50
2022-12-08T05:42:36.123Z,52.49
2022-12-08T05:45:09.196Z,52.48
2022-12-08T05:47:42.039Z,52.23
2022-12-08T05:50:15.052Z,52.30
2022-12-08T05:52:48.130Z,52.28
2022-12-08T05:55:21.172Z,52.27
2022-12-08T05:57:54.175Z,52.23
2022-12-08T06:00:27.174Z,52.24
2022-12-08T06:03:00.396Z,52.23
2022-12-08T06:05:33.229Z,52.25
2022-12-08T06:08:06.265Z,52.23
2022-12-08T06:10:39.191Z,52.20
2022-12-08T06:13:12.120Z,52.17
2022-12-08T06:15:45.127Z,52.17
2022-12-08T06:18:17.858Z,52.05
2022-12-08T06:20:51.115Z,52.00
2022-12-08T06:23:24.248Z,52.07
2022-12-08T06:25:57.145Z,52.01
2022-12-08T06:28:30.156Z,52.02
2022-12-08T06:31:03.158Z,52.00
2022-12-08T06:33:36.188Z,52.00
2022-12-08T06:36:09.178Z,51.90
2022-12-08T06:38:43.822Z,51.85
2022-12-08T06:41:15.183Z,51.88
2022-12-08T06:43:48.295Z,51.82
2022-12-08T06:46:21.096Z,51.69
2022-12-08T06:48:54.286Z,51.80
2022-12-08T06:51:27.242Z,51.78
2022-12-08T06:54:00.175Z,51.71
2022-12-08T06:56:33.208Z,51.78
2022-12-08T06:59:06.292Z,51.77
2022-12-08T07:01:39.269Z,51.67
2022-12-08T07:04:12.294Z,51.66
2022-12-08T07:06:45.302Z,51.65
2022-12-08T07:09:18.020Z,48.53
2022-12-08T07:11:51.166Z,45.27
2022-12-08T07:14:24.170Z,43.19
2022-12-08T07:16:57.256Z,43.01
2022-12-08T07:19:30.351Z,41.65
2022-12-08T07:22:09.160Z,42.36
2022-12-08T07:24:42.341Z,43.59
2022-12-08T07:27:15.313Z,44.48
2022-12-08T07:29:48.277Z,44.68
2022-12-08T07:32:21.337Z,45.39
2022-12-08T07:34:54.246Z,46.02
2022-12-08T07:37:27.334Z,46.41
2022-12-08T07:40:00.283Z,46.77
2022-12-08T07:42:33.281Z,46.99
2022-12-08T07:45:06.359Z,47.29
2022-12-08T07:47:39.144Z,47.55
2022-12-08T07:50:12.348Z,47.73
2022-12-08T07:52:45.329Z,47.88
2022-12-08T07:55:18.293Z,47.98
2022-12-08T07:57:51.376Z,48.11
2022-12-08T08:00:30.402Z,48.20
2022-12-08T08:03:03.493Z,48.29
2022-12-08T08:05:36.341Z,48.42
2022-12-08T08:08:09.452Z,48.46
2022-12-08T08:10:42.149Z,48.53
2022-12-08T08:13:15.327Z,48.60
2022-12-08T08:15:48.565Z,48.65
2022-12-08T08:18:21.313Z,48.69
2022-12-08T08:20:54.369Z,48.73
2022-12-08T08:23:27.418Z,48.78
2022-12-08T08:26:00.374Z,48.80
2022-12-08T08:28:33.423Z,48.83
2022-12-08T08:31:06.396Z,48.86
2022-12-08T08:33:39.309Z,48.88
2022-12-08T08:36:12.412Z,48.95
2022-12-08T08:38:45.374Z,48.95
2022-12-08T08:41:18.414Z,48.94
2022-12-08T08:43:51.444Z,48.96
2022-12-08T08:46:24.548Z,48.95
2022-12-08T08:48:57.410Z,48.95
2022-12-08T08:51:30.344Z,48.97
2022-12-08T08:54:03.469Z,48.92
2022-12-08T08:56:36.351Z,48.91
2022-12-08T08:59:09.470Z,48.95
2022-12-08T09:01:42.559Z,48.96
2022-12-08T09:04:15.608Z,48.94
2022-12-08T09:06:48.386Z,48.96
2022-12-08T09:09:21.511Z,48.99
2022-12-08T09:11:54.265Z,49.02
2022-12-08T09:14:27.510Z,49.03
2022-12-08T09:17:00.527Z,49.03
2022-12-08T09:19:33.412Z,48.97
2022-12-08T09:22:06.408Z,48.99
2022-12-08T09:24:39.410Z,49.01
2022-12-08T09:27:12.335Z,48.99
2022-12-08T09:29:45.436Z,49.07
2022-12-08T09:32:18.571Z,49.08
2022-12-08T09:34:52.404Z,49.06
2022-12-08T09:37:24.500Z,49.12
2022-12-08T09:39:57.432Z,49.16
2022-12-08T09:42:30.582Z,49.25
2022-12-08T09:45:03.484Z,49.17
2022-12-08T09:47:36.615Z,49.26
2022-12-08T09:50:09.532Z,49.22
2022-12-08T09:52:42.460Z,49.29
2022-12-08T09:55:15.553Z,49.26
2022-12-08T09:57:52.978Z,49.35
2022-12-08T10:00:21.660Z,49.37
2022-12-08T10:02:54.543Z,49.37
2022-12-08T10:05:27.563Z,49.37
2022-12-08T10:08:00.629Z,49.38
2022-12-08T10:10:33.627Z,49.38
2022-12-08T10:13:06.578Z,49.46
2022-12-08T10:15:39.555Z,49.41
2022-12-08T10:18:12.629Z,49.42
2022-12-08T10:20:45.478Z,49.42
2022-12-08T10:23:18.629Z,49.38
2022-12-08T10:25:51.629Z,49.32
2022-12-08T10:28:24.598Z,49.36
2022-12-08T10:30:57.569Z,49.42
2022-12-08T10:33:30.632Z,49.45
2022-12-08T10:36:03.625Z,49.40
2022-12-08T10:38:42.470Z,49.39
2022-12-08T10:41:15.630Z,49.37
2022-12-08T10:43:48.625Z,49.41
2022-12-08T10:46:21.649Z,49.41
2022-12-08T10:48:54.615Z,49.40
2022-12-08T10:51:27.649Z,49.39
2022-12-08T10:54:00.551Z,49.39
2022-12-08T10:56:33.425Z,49.39
2022-12-08T10:59:06.668Z,49.37
2022-12-08T11:01:39.773Z,49.38
2022-12-08T11:04:12.685Z,49.41
2022-12-08T11:06:45.348Z,49.45
2022-12-08T11:09:18.585Z,49.41
2022-12-08T11:11:51.545Z,49.34
2022-12-08T11:14:24.331Z,49.36
2022-12-08T11:16:57.663Z,49.19
2022-12-08T11:19:30.731Z,49.11
2022-12-08T11:22:03.307Z,49.14
2022-12-08T11:24:37.795Z,49.26
2022-12-08T11:27:09.699Z,49.22
2022-12-08T11:29:42.619Z,49.27
2022-12-08T11:32:15.621Z,49.28
2022-12-08T11:34:48.695Z,49.33
2022-12-08T11:37:21.713Z,49.36
2022-12-08T11:39:54.652Z,49.29
2022-12-08T11:42:27.562Z,49.34
2022-12-08T11:45:00.563Z,49.28
2022-12-08T11:47:33.554Z,49.36
2022-12-08T11:50:06.809Z,49.34
2022-12-08T11:52:39.527Z,49.37
2022-12-08T11:55:12.783Z,49.39
2022-12-08T11:57:45.787Z,49.47
2022-12-08T12:00:18.679Z,49.58
2022-12-08T12:02:51.811Z,49.70
2022-12-08T12:05:39.761Z,49.79
2022-12-08T12:07:57.900Z,49.85
2022-12-08T12:10:30.763Z,49.88
2022-12-08T12:13:03.438Z,49.90
2022-12-08T12:15:42.631Z,49.96
2022-12-08T12:18:17.095Z,49.99
2022-12-08T12:20:48.709Z,49.98
2022-12-08T12:23:21.724Z,49.99
2022-12-08T12:25:54.569Z,50.03
2022-12-08T12:28:27.692Z,50.01
2022-12-08T12:31:00.928Z,50.15
2022-12-08T12:33:34.620Z,50.19
2022-12-08T12:36:07.533Z,50.24
2022-12-08T12:38:40.615Z,50.26
2022-12-08T12:41:17.778Z,50.29
2022-12-08T12:43:48.691Z,50.25
2022-12-08T12:46:21.770Z,50.26
2022-12-08T12:48:54.803Z,50.30
2022-12-08T12:51:29.607Z,50.29
2022-12-08T12:54:02.564Z,50.33
2022-12-08T12:56:35.757Z,50.28
2022-12-08T12:59:08.725Z,50.27
2022-12-08T13:01:41.852Z,50.30
2022-12-08T13:04:14.888Z,50.25
2022-12-08T13:06:47.798Z,50.35
2022-12-08T13:09:20.858Z,50.30
2022-12-08T13:11:53.454Z,50.31
2022-12-08T13:14:26.817Z,50.34
2022-12-08T13:16:59.784Z,50.32
2022-12-08T13:19:32.659Z,50.32
2022-12-08T13:22:05.492Z,50.33
2022-12-08T13:24:38.876Z,50.37
2022-12-08T13:27:11.801Z,50.30
2022-12-08T13:29:44.486Z,50.36
2022-12-08T13:32:23.795Z,50.36
2022-12-08T13:34:56.610Z,50.36
2022-12-08T13:37:29.698Z,50.35
2022-12-08T13:40:02.836Z,50.32
2022-12-08T13:42:35.746Z,50.33
2022-12-08T13:48:13.619Z,50.33
2022-12-08T13:56:37.481Z,50.21
2022-12-08T13:57:53.717Z,50.01
2022-12-08T14:00:26.565Z,49.82
2022-12-08T14:02:59.708Z,49.64
2022-12-08T14:06:03.423Z,49.55
2022-12-08T14:08:05.866Z,49.48
2022-12-08T14:10:44.666Z,49.65
2022-12-08T14:13:17.556Z,49.71
2022-12-08T14:15:50.766Z,49.79
2022-12-08T14:18:23.588Z,49.80
2022-12-08T14:21:19.956Z,49.88
2022-12-08T14:23:29.930Z,49.94
2022-12-08T14:26:02.685Z,49.97
2022-12-08T14:28:40.038Z,49.95
2022-12-08T14:31:08.844Z,50.01
2022-12-08T14:33:41.720Z,50.06
2022-12-08T14:36:14.919Z,50.03
2022-12-08T14:38:47.652Z,50.12
2022-12-08T14:41:20.807Z,50.14
2022-12-08T14:43:53.650Z,50.17
2022-12-08T14:46:27.042Z,50.19
2022-12-08T14:48:59.686Z,50.26
2022-12-08T14:51:32.778Z,50.23
2022-12-08T14:54:08.643Z,50.24
2022-12-08T14:56:41.995Z,50.30
2022-12-08T14:59:14.934Z,50.31
2022-12-08T15:01:47.781Z,50.33
2022-12-08T15:04:20.744Z,50.36
2022-12-08T15:06:53.860Z,50.37
2022-12-08T15:09:26.769Z,50.46
2022-12-08T15:11:59.991Z,50.46
2022-12-08T15:14:32.783Z,50.45
2022-12-08T15:17:05.846Z,50.51
2022-12-08T15:19:38.836Z,50.53
2022-12-08T15:22:11.684Z,50.54
2022-12-08T15:24:45.089Z,50.57
2022-12-08T15:27:18.008Z,50.57
2022-12-08T15:29:50.986Z,50.58
2022-12-08T15:32:23.877Z,50.59
2022-12-08T15:34:56.701Z,50.46
2022-12-08T15:37:29.759Z,50.42
2022-12-08T15:40:03.383Z,50.44
2022-12-08T15:42:35.911Z,50.37
2022-12-08T15:45:08.806Z,50.49
2022-12-08T15:47:42.089Z,50.54
2022-12-08T15:50:17.839Z,50.57
2022-12-08T15:52:51.083Z,50.61
2022-12-08T15:55:23.757Z,50.62
2022-12-08T16:00:51.953Z,50.63
2022-12-08T16:03:27.680Z,50.67
2022-12-08T16:05:55.361Z,50.69
2022-12-08T16:08:23.340Z,50.74
2022-12-08T16:11:28.912Z,50.68
2022-12-08T16:15:59.926Z,50.65
2022-12-08T16:18:24.882Z,50.66
2022-12-08T16:21:39.971Z,50.64
2022-12-08T16:23:46.342Z,50.60
2022-12-08T16:28:54.354Z,50.65
2022-12-08T16:31:13.816Z,50.63
2022-12-08T16:33:43.114Z,50.57
2022-12-08T16:36:16.070Z,50.59
2022-12-08T16:38:48.787Z,50.55
2022-12-08T16:41:24.164Z,50.55
2022-12-08T16:43:56.820Z,50.59
2022-12-08T16:46:29.941Z,50.54
2022-12-08T16:49:03.186Z,50.58
2022-12-08T16:51:36.156Z,50.52
2022-12-08T16:54:08.831Z,50.53
2022-12-08T16:56:41.889Z,50.56
2022-12-08T16:59:14.816Z,50.52
2022-12-08T17:01:48.132Z,50.56
2022-12-08T17:04:31.356Z,50.53
2022-12-08T17:06:54.128Z,50.52
2022-12-08T17:09:26.962Z,50.52
2022-12-08T17:12:03.734Z,50.50
2022-12-08T17:14:33.048Z,50.52
2022-12-08T17:17:05.991Z,50.53
2022-12-08T17:19:39.026Z,50.53
2022-12-08T17:22:12.118Z,50.57
2022-12-08T17:24:45.019Z,50.57
2022-12-08T17:27:18.169Z,50.56
2022-12-08T17:29:51.155Z,50.62
2022-12-08T17:32:24.249Z,50.63
2022-12-08T17:35:03.589Z,50.56
2022-12-08T17:37:36.061Z,50.61
2022-12-08T17:40:09.030Z,50.60
2022-12-08T17:42:42.236Z,50.57
2022-12-08T17:45:14.879Z,50.51
2022-12-08T17:47:48.272Z,50.45
2022-12-08T17:50:20.998Z,50.46
2022-12-08T17:52:54.283Z,50.42
2022-12-08T17:55:27.201Z,50.37
2022-12-08T17:58:00.204Z,50.36
2022-12-08T18:00:33.094Z,50.43
2022-12-08T18:03:06.072Z,50.37
2022-12-08T18:05:39.272Z,50.27
2022-12-08T18:08:12.165Z,50.19
2022-12-08T18:10:45.023Z,50.01
2022-12-08T18:13:18.183Z,50.06
2022-12-08T18:15:51.364Z,49.89
2022-12-08T18:18:24.134Z,49.91
2022-12-08T18:20:56.946Z,49.83
2022-12-08T18:23:30.144Z,49.84
2022-12-08T18:26:02.972Z,49.65
2022-12-08T18:28:42.038Z,49.70
2022-12-08T18:31:15.148Z,49.63
2022-12-08T18:33:48.122Z,49.83
2022-12-08T18:36:21.206Z,49.90
2022-12-08T18:38:53.973Z,49.98
2022-12-08T18:41:27.045Z,50.04
2022-12-08T18:44:00.191Z,50.10
2022-12-08T18:46:47.098Z,50.21
2022-12-08T18:49:20.112Z,50.20
2022-12-08T18:51:53.240Z,50.25
2022-12-08T18:54:42.830Z,50.28
2022-12-08T18:56:59.177Z,50.31
2022-12-08T18:59:32.052Z,50.39
2022-12-08T19:02:05.215Z,50.33
2022-12-08T19:04:39.085Z,50.33
2022-12-08T19:07:11.126Z,50.37
2022-12-08T19:09:44.039Z,50.41
2022-12-08T19:12:17.370Z,50.41
2022-12-08T19:14:50.065Z,50.44
2022-12-08T19:17:23.302Z,50.40
2022-12-08T19:19:56.306Z,50.42
2022-12-08T19:22:29.429Z,50.46
2022-12-08T19:25:02.298Z,50.42
2022-12-08T19:27:35.528Z,50.44
2022-12-08T19:30:09.416Z,50.46
2022-12-08T19:32:42.257Z,50.47
2022-12-08T19:35:15.288Z,50.45
2022-12-08T19:37:48.431Z,50.45
2022-12-08T19:40:21.115Z,50.46
2022-12-08T19:42:54.167Z,50.47
2022-12-08T19:45:27.349Z,50.45
2022-12-08T19:48:00.382Z,50.50
2022-12-08T19:50:33.432Z,50.46
2022-12-08T19:53:06.128Z,50.48
2022-12-08T19:55:39.477Z,50.51
2022-12-08T19:58:12.344Z,50.52
2022-12-08T20:00:45.299Z,50.57
2022-12-08T20:03:18.192Z,50.54
2022-12-08T20:05:51.205Z,50.52
2022-12-08T20:08:24.544Z,50.54
2022-12-08T20:11:11.348Z,50.57
2022-12-08T20:13:44.381Z,50.57
2022-12-08T20:16:17.685Z,50.54
2022-12-08T20:18:50.463Z,50.54
2022-12-08T20:21:23.394Z,50.50
2022-12-08T20:23:56.422Z,50.46
2022-12-08T20:26:29.482Z,50.44
2022-12-08T20:29:02.579Z,50.48
2022-12-08T20:31:35.291Z,50.52
2022-12-08T20:34:08.425Z,50.52
2022-12-08T20:36:41.438Z,50.50
2022-12-08T20:39:14.560Z,50.50
2022-12-08T20:41:47.429Z,50.50
2022-12-08T20:44:20.539Z,50.49
2022-12-08T20:46:53.638Z,50.50
2022-12-08T20:49:31.283Z,50.46
2022-12-08T20:51:59.346Z,50.49
2022-12-08T20:54:32.251Z,50.45
2022-12-08T20:57:05.249Z,50.46
2022-12-08T20:59:38.338Z,50.48
2022-12-08T21:02:11.317Z,50.51
2022-12-08T21:04:44.752Z,50.54
2022-12-08T21:07:17.532Z,50.13
2022-12-08T21:09:50.283Z,49.71
2022-12-08T21:12:23.419Z,49.35
2022-12-08T21:14:56.308Z,49.92
2022-12-08T21:17:29.891Z,49.96
2022-12-08T21:20:02.551Z,50.09
2022-12-08T21:22:35.618Z,50.12
2022-12-08T21:25:08.615Z,50.18
2022-12-08T21:27:41.478Z,50.23
2022-12-08T21:30:14.773Z,50.22
2022-12-08T21:32:47.939Z,50.25
2022-12-08T21:35:20.702Z,50.22
2022-12-08T21:37:53.644Z,50.31
2022-12-08T21:40:26.629Z,50.43
2022-12-08T21:42:59.665Z,50.43
2022-12-08T21:45:32.647Z,50.42
2022-12-08T21:48:11.069Z,50.34
2022-12-08T21:50:38.624Z,50.31
2022-12-08T21:53:11.541Z,50.45
2022-12-08T21:55:44.740Z,50.44
2022-12-08T21:58:17.695Z,50.49
2022-12-08T22:00:50.962Z,50.46
2022-12-08T22:03:23.800Z,50.51
2022-12-08T22:05:56.676Z,50.54
2022-12-08T22:08:29.726Z,50.55
2022-12-08T22:11:02.548Z,50.59
2022-12-08T22:13:35.693Z,50.57
2022-12-08T22:16:22.637Z,50.56
2022-12-08T22:18:55.759Z,50.62
2022-12-08T22:21:28.714Z,50.61
2022-12-08T22:24:01.810Z,50.58
2022-12-08T22:26:35.677Z,50.63
2022-12-08T22:29:08.826Z,50.65
2022-12-08T22:31:41.876Z,50.63
2022-12-08T22:34:14.855Z,50.64
2022-12-08T22:36:48.727Z,50.65
2022-12-08T22:39:21.878Z,50.71
2022-12-08T22:41:55.747Z,50.67
2022-12-08T22:44:28.721Z,50.72
2022-12-08T22:47:01.885Z,50.83
2022-12-08T22:49:35.779Z,50.82
2022-12-08T22:52:08.838Z,50.82
2022-12-08T22:54:42.723Z,50.82
2022-12-08T22:57:15.921Z,50.89
2022-12-08T22:59:48.669Z,50.87
2022-12-08T23:02:21.760Z,50.91
2022-12-08T23:04:55.107Z,50.96
2022-12-08T23:07:27.658Z,50.94
2022-12-08T23:10:00.937Z,50.92
2022-12-08T23:12:33.992Z,51.00
2022-12-08T23:15:06.732Z,51.02
2022-12-08T23:17:39.893Z,51.08
2022-12-08T23:20:13.982Z,51.07
2022-12-08T23:22:47.792Z,51.09
2022-12-08T23:25:20.978Z,51.09
2022-12-08T23:27:53.798Z,51.04
2022-12-08T23:30:26.748Z,51.08
2022-12-08T23:32:59.979Z,51.10
2022-12-08T23:35:32.812Z,51.12
2022-12-08T23:38:05.788Z,51.11
2022-12-08T23:40:38.572Z,51.08
2022-12-08T23:43:11.960Z,51.09
2022-12-08T23:45:44.912Z,51.11
2022-12-08T23:48:18.045Z,51.11
2022-12-08T23:50:51.233Z,51.12
2022-12-08T23:53:23.942Z,51.12
2022-12-08T23:55:59.773Z,51.11
2022-12-08T23:58:32.914Z,51.15
